Latest Coastal Weather Observations for Adelaide Airport

IDS60701

Issued at 3:11 pm CDT Monday 27 March 2017 (issued every 10 minutes, with the page automatically refreshed every 10 minutes)

About coastal observations | Map of coastal stations | Coastal observations for SA | Marine services | Other Formats
Station Details ID: 023034 Name: ADELAIDE AIRPORT Lat: -34.95 Lon: 138.52 Height: 2.0 m
Data from the previous 72 hours. | See also: Recent months at Adelaide Airport
Date/Time
CDT
Temp
°C
Wind Pressure Rain since
9am
mm
Weather Cloud Vis
km
Sea
Height
m
Swell
Dir  Spd
kts
Gust
kts
hPa Trend Height
m
Period
s
Dir
27/03:00pm 22.3 WSW 20 25 1014.4 R 0.0 Haze Mostly clear 20 - - - -
27/02:30pm 22.7 WSW 16 20 1014.7 - 0.0 - Mostly clear 10 - - - -
27/02:00pm 22.1 SW 17 20 1014.9 - 0.0 - Mostly clear 10 - - - -
27/01:30pm 22.1 WSW 17 24 1015.0 - 0.0 - Mostly clear 10 - - - -
27/01:00pm 22.0 WSW 17 22 1015.2 - 0.0 - Mostly clear 10 - - - -
27/12:30pm 22.1 WSW 17 21 1015.4 - 0.0 - Mostly clear 10 - - - -
27/12:00pm 21.7 WSW 16 20 1015.5 R 0.0 Recent precip. Mostly cloudy 15 - - - -
27/11:30am 20.4 WSW 15 20 1015.3 - 0.0 - Mostly clear 10 - - - -
27/11:00am 21.4 WSW 17 21 1014.8 - 0.0 - Mostly clear 9 - - - -
27/10:30am 20.4 WSW 17 21 1014.7 - 0.0 - Mostly clear 9 - - - -
27/10:00am 20.4 W 18 23 1014.0 - 0.0 Showers Partly cloudy 10 - - - -
27/09:30am 20.8 WSW 18 26 1013.6 - 0.0 - Partly cloudy 10 - - - -
27/09:00am 21.2 WSW 18 22 1012.9 R 0.0 Haze Mostly cloudy 12 - - - -
27/08:30am 21.0 WSW 11 15 1012.4 - 0.0 - Partly cloudy 10 - - - -
27/08:00am 21.0 W 13 18 1011.8 - 0.0 - Mostly clear 10 - - - -
27/07:30am 20.8 W 14 18 1011.1 - 0.0 - Mostly clear 10 - - - -
27/07:00am 20.9 W 14 19 1010.4 - 0.0 - Mostly clear 10 - - - -
27/06:30am 21.1 WSW 16 20 1009.7 - 0.0 - Mostly clear 10 - - - -
27/06:00am 21.2 WSW 16 21 1009.2 R 0.0 Fine Partly cloudy 25 - - - -
27/05:30am 21.3 WSW 17 22 1008.8 - 0.0 - Partly cloudy 10 - - - -
27/05:00am 21.4 WSW 18 22 1008.0 - 0.0 - Mostly cloudy 10 - - - -
27/04:55am 21.4 W 18 22 1008.0 - 0.0 - Mostly cloudy 10 - - - -
27/04:30am 21.7 WSW 15 19 1007.3 - 0.0 - Partly cloudy 10 - - - -
27/04:24am 21.8 WSW 17 24 1007.1 - 0.0 - Partly cloudy 10 - - - -
27/04:00am 22.1 WSW 17 22 1006.3 - 0.0 - Mostly clear 10 - - - -
27/03:30am 23.3 W 19 27 1005.2 - 0.0 - - 10 - - - -
27/03:26am 23.8 WNW 18 27 1005.2 - 0.0 - - 10 - - - -
27/03:14am 26.3 NW 16 21 1004.3 - 0.0 - - 10 - - - -
27/03:00am 29.7 N 18 34 1003.7 R 0.0 Fine Partly cloudy 30 - - - -
27/02:30am 32.3 NNE 16 21 1002.0 - 0.0 - - 10 - - - -
27/02:00am 32.5 NNE 17 22 1002.4 - 0.0 - - 10 - - - -
27/01:30am 32.3 NNE 15 22 1002.6 - 0.0 - - 10 - - - -
27/01:00am 31.8 NE 15 20 1003.1 - 0.0 - - 10 - - - -
27/12:30am 32.1 NE 15 18 1003.4 - 0.0 - - 10 - - - -
27/12:00am 31.5 NE 14 17 1003.9 F 0.0 Fine Mostly clear 35 - - - -
 
Date/Time
CDT
Temp
°C
Wind Pressure Rain since
9am
mm
Weather Cloud Vis
km
Sea
Height
m
Swell
Dir  Spd
kts
Gust
kts
hPa Trend Height
m
Period
s
Dir
26/11:30pm 31.5 NE 15 20 1004.5 - 0.0 - - 10 - - - -
26/11:00pm 32.1 NE 16 21 1004.9 - 0.0 - - 10 - - - -
26/10:30pm 32.2 NE 14 19 1005.3 - 0.0 - - 10 - - - -
26/10:00pm 32.2 NE 14 17 1005.5 - 0.0 - - 10 - - - -
26/09:30pm 32.0 NE 13 19 1005.7 - 0.0 - - 10 - - - -
26/09:00pm 31.9 NE 11 15 1005.9 F 0.0 Fine Mostly cloudy 35 - - - -
26/08:30pm 32.0 NE 12 17 1006.0 - 0.0 - - 10 - - - -
26/08:00pm 32.1 NE 9 12 1006.0 - 0.0 - - 10 - - - -
26/07:30pm 32.2 NE 10 14 1005.9 - 0.0 - - 10 - - - -
26/07:00pm 33.2 NE 10 14 1006.0 - 0.0 - - 10 - - - -
26/06:30pm 33.2 NE 7 10 1006.2 - 0.0 - - 10 - - - -
26/06:00pm 33.5 ENE 11 16 1006.1 F 0.0 Fine Mostly cloudy 40 - - - -
26/05:30pm 33.0 ENE 7 13 1006.3 - 0.0 - - 10 - - - -
26/05:00pm 30.5 SW 5 5 1006.8 - 0.0 - - 10 - - - -
26/04:30pm 30.1 SSW 5 6 1007.5 - 0.0 - - 10 - - - -
26/04:00pm 31.0 S 5 7 1007.9 - 0.0 - - 10 - - - -
26/03:30pm 29.6 SW 7 8 1008.5 - 0.0 - - 10 - - - -
26/03:00pm 29.5 WSW 8 10 1008.9 F 0.0 Fine Mostly cloudy 40 - - - -
26/02:30pm 31.0 WSW 6 8 1009.3 - 0.0 - - 10 - - - -
26/02:00pm 28.2 SW 6 7 1010.0 - 0.0 - - 10 - - - -
26/01:30pm 27.1 WSW 8 9 1010.6 - 0.0 - - 10 - - - -
26/01:00pm 28.1 WSW 7 8 1010.9 - 0.0 - - 10 - - - -
26/12:30pm 27.3 WSW 7 8 1011.4 - 0.0 - Partly cloudy 10 - - - -
26/12:00pm 28.2 NNE 4 6 1011.7 F 0.0 Fine Mostly cloudy 35 - - - -
26/11:30am 27.8 SE 3 6 1012.1 - 0.0 - - 10 - - - -
26/11:00am 26.2 SE 3 5 1012.5 - 0.0 - - 10 - - - -
26/10:30am 25.8 S 5 6 1012.6 - 0.0 - - 10 - - - -
26/10:00am 23.7 SW 7 9 1012.5 - 0.0 - - 10 - - - -
26/09:30am 23.5 SW 6 8 1012.3 - 0.0 - Partly cloudy 10 - - - -
26/09:00am 23.0 SSW 5 6 1012.0 F 0.0 Fine Mostly cloudy 35 - - - -
26/08:30am 22.3 CALM 0 0 1011.9 - 0.0 - - 10 - - - -
26/08:00am 21.7 ESE 2 4 1011.7 - 0.0 - - 10 - - - -
26/07:30am 22.3 NNE 7 9 1011.5 - 0.0 - - 10 - - - -
26/07:00am 22.1 NE 7 8 1011.4 - 0.0 - - 10 - - - -
26/06:30am 21.5 NE 8 10 1011.1 - 0.0 - - 10 - - - -
26/06:00am 20.8 NE 8 9 1011.3 F 0.0 Rain Cloudy 25 - - - -
26/05:30am 20.8 NE 3 4 1011.8 - 0.0 - Partly cloudy 10 - - - -
26/05:00am 20.9 NNE 4 5 1011.5 - 0.0 - - 10 - - - -
26/04:30am 20.5 NNE 4 4 1011.9 - 0.0 - - 10 - - - -
26/04:00am 20.4 CALM 0 0 1012.1 - 0.0 - - 10 - - - -
26/03:30am 20.6 E 2 4 1012.2 - 0.0 - - 10 - - - -
26/03:00am 20.5 CALM 0 0 1012.8 S 0.0 Fine Mostly cloudy 25 - - - -
26/02:30am 20.8 CALM 0 0 1013.0 - 0.0 - - 10 - - - -
26/02:00am 20.6 CALM 0 0 1013.2 - 0.0 - - 10 - - - -
26/01:30am 21.0 CALM 0 0 1013.3 - 0.0 - - 10 - - - -
26/01:00am 21.0 CALM 0 0 1013.7 - 0.0 - - 10 - - - -
26/12:30am 21.1 NE 4 4 1013.7 - 0.0 - - 10 - - - -
26/12:00am 21.0 ENE 5 5 1013.8 R 0.0 Fine Mostly cloudy 30 - - - -
 
Date/Time
CDT
Temp
°C
Wind Pressure Rain since
9am
mm
Weather Cloud Vis
km
Sea
Height
m
Swell
Dir  Spd
kts
Gust
kts
hPa Trend Height
m
Period
s
Dir
25/11:30pm 21.6 N 4 5 1014.2 - 0.0 - - 10 - - - -
25/11:00pm 21.8 NNW 4 5 1014.2 - 0.0 - - 10 - - - -
25/10:30pm 21.9 NW 3 4 1014.1 - 0.0 - - 10 - - - -
25/10:00pm 21.8 WNW 3 4 1014.1 - 0.0 - Partly cloudy 10 - - - -
25/09:30pm 21.6 WNW 4 5 1013.8 - 0.0 - - 10 - - - -
25/09:00pm 21.5 CALM 0 0 1013.1 F 0.0 Fine Mostly cloudy 30 - - - -
25/08:30pm 21.8 W 4 5 1013.3 - 0.0 - - 10 - - - -
25/08:00pm 22.2 CALM 0 0 1013.1 - 0.0 - Partly cloudy 10 - - - -
25/07:30pm 22.4 SSW 4 5 1013.1 - 0.0 - Cloudy 10 - - - -
25/07:00pm 22.3 SSW 7 10 1013.1 - 0.0 - Partly cloudy 10 - - - -
25/06:30pm 22.6 SW 8 10 1013.2 - 0.0 - Partly cloudy 10 - - - -
25/06:00pm 22.2 S 7 9 1012.6 R 0.0 Fine Partly cloudy 40 - - - -
25/05:30pm 22.6 SSW 8 11 1012.9 - 0.0 - Partly cloudy 10 - - - -
25/05:00pm 22.8 SW 11 14 1013.0 - 0.0 - - 10 - - - -
25/04:30pm 23.4 SW 9 11 1012.7 - 0.0 - Partly cloudy 10 - - - -
25/04:00pm 23.5 SW 10 13 1012.8 - 0.0 - Partly cloudy 10 - - - -
25/03:30pm 23.2 SW 9 12 1012.8 - 0.0 - - 10 - - - -
25/03:00pm 23.7 SW 8 10 1012.8 R 0.0 Fine Partly cloudy 40 - - - -
25/02:36pm 23.3 SW 8 10 1013.0 - 0.0 - - 10 - - - -
25/02:30pm 23.5 SSW 9 10 1013.0 - 0.0 - - 10 - - - -
25/02:00pm 23.1 SW 6 7 1013.2 - 0.0 - - 10 - - - -
25/01:30pm 23.4 WSW 6 8 1013.8 - 0.0 - - 10 - - - -
25/01:00pm 23.2 W 6 8 1013.9 - 0.0 - Partly cloudy 10 - - - -
25/12:30pm 23.2 WSW 6 8 1013.8 - 0.0 - - 10 - - - -
25/12:00pm 22.8 WSW 7 8 1014.2 R 0.0 Fine Mostly cloudy 40 - - - -
25/11:30am 23.4 WSW 6 7 1014.1 - 0.0 - Partly cloudy 10 - - - -
25/11:00am 23.2 WSW 5 8 1014.2 - 0.0 - Partly cloudy 10 - - - -
25/10:30am 22.9 WSW 6 7 1014.0 - 0.0 - Partly cloudy 10 - - - -
25/10:00am 23.1 WSW 3 5 1013.6 - 0.0 - Partly cloudy 10 - - - -
25/09:30am 22.5 CALM 0 0 1013.4 - 0.0 - Partly cloudy 10 - - - -
25/09:00am 22.2 NNE 3 5 1013.2 R 0.0 Fine Partly cloudy 40 - - - -
25/08:30am 21.1 ENE 4 5 1013.0 - 0.0 - - 10 - - - -
25/08:00am 20.9 NNE 5 5 1013.0 - 0.0 - - 10 - - - -
25/07:30am 20.5 NNE 3 5 1012.6 - 0.0 - - 10 - - - -
25/07:00am 20.9 N 4 5 1012.0 - 0.0 - - 10 - - - -
25/06:30am 21.2 NW 6 7 1011.8 - 0.0 - - 10 - - - -
25/06:00am 21.3 WNW 5 8 1011.6 R 0.0 Fine Mostly clear 35 - - - -
25/05:30am 22.2 N 5 6 1011.1 - 0.0 - - 10 - - - -
25/05:00am 22.1 NE 6 8 1010.7 - 0.0 - Partly cloudy 10 - - - -
25/04:30am 22.3 NE 6 8 1010.4 - 0.0 - Cloudy 10 - - - -
25/04:00am 23.0 NNE 7 9 1010.5 - 0.0 - Cloudy 10 - - - -
25/03:30am 23.1 NE 5 6 1010.8 - 0.0 - Cloudy 10 - - - -
25/03:00am 22.9 NE 6 6 1011.0 R 0.0 Fine Mostly cloudy 35 - - - -
25/02:30am 23.2 N 5 6 1011.3 - 0.0 - Partly cloudy 10 - - - -
25/02:00am 23.3 NW 6 7 1011.4 - 0.0 - - 10 - - - -
25/01:30am 23.2 WNW 6 7 1011.4 - 0.0 - - 10 - - - -
25/01:00am 23.6 WNW 5 5 1011.3 - 0.0 - - 10 - - - -
25/12:30am 25.2 N 5 6 1011.3 - 0.0 - - 10 - - - -
25/12:00am 25.2 NE 1 4 1011.2 F 0.0 Fine Mostly cloudy 35 - - - -
 
Date/Time
CDT
Temp
°C
Wind Pressure Rain since
9am
mm
Weather Cloud Vis
km
Sea
Height
m
Swell
Dir  Spd
kts
Gust
kts
hPa Trend Height
m
Period
s
Dir
24/11:30pm 25.5 E 6 8 1011.6 - 0.0 - - 10 - - - -
24/11:00pm 25.2 ESE 6 8 1012.0 - 0.0 - - 10 - - - -
24/10:30pm 25.6 SE 6 8 1012.4 - 0.0 - - 10 - - - -
24/10:00pm 25.8 SE 8 10 1012.5 - 0.0 - - 10 - - - -
24/09:30pm 25.5 SE 5 7 1012.3 - 0.0 - - 10 - - - -
24/09:00pm 24.2 S 5 6 1012.1 F 0.0 Fine Mostly cloudy 35 - - - -
24/08:30pm 25.2 SSW 6 8 1012.2 - 0.0 - - 10 - - - -
24/08:00pm 26.0 SSW 6 7 1011.9 - 0.0 - - 10 - - - -
24/07:30pm 26.5 SSW 7 8 1011.6 - 0.0 - - 10 - - - -
24/07:00pm 26.1 SW 9 11 1011.8 - 0.0 - - 10 - - - -
24/06:30pm 29.4 SSW 5 5 1011.1 - 0.0 - - 10 - - - -
24/06:00pm 28.9 S 6 7 1011.1 F 0.0 Fine Partly cloudy 40 - - - -
24/05:30pm 28.8 SSW 7 9 1011.4 - 0.0 - - 10 - - - -
24/05:00pm 29.6 SSW 7 11 1011.6 - 0.0 - - 10 - - - -
24/04:30pm 29.9 SW 9 12 1011.6 - 0.0 - - 10 - - - -
24/04:29pm 30.1 SW 9 12 1011.7 - 0.0 - - 10 - - - -
24/04:00pm 28.8 SSW 9 11 1011.7 - 0.0 - - 10 - - - -
24/03:30pm 27.5 WSW 11 13 1011.8 - 0.0 - - 10 - - - -

Other Formats:

Comma delimited format used in spreadsheet applications
http://www.bom.gov.au/fwo/IDS60701/IDS60701.94672.axf

JavaScript Object Notation format (JSON) in row-major order
http://www.bom.gov.au/fwo/IDS60701/IDS60701.94672.json